createdAt,value
2022-12-28T00:01:45.882Z,70.86
2022-12-28T00:04:14.426Z,71.04
2022-12-28T00:06:40.976Z,71.04
2022-12-28T00:09:11.616Z,70.74
2022-12-28T00:11:38.503Z,70.82
2022-12-28T00:14:05.346Z,70.77
2022-12-28T00:16:34.691Z,70.72
2022-12-28T00:19:03.351Z,71.10
2022-12-28T00:21:30.299Z,70.82
2022-12-28T00:23:58.604Z,70.52
2022-12-28T00:26:28.195Z,70.78
2022-12-28T00:28:59.919Z,70.30
2022-12-28T00:31:30.688Z,70.68
2022-12-28T00:33:57.262Z,71.03
2022-12-28T00:36:23.873Z,71.24
2022-12-28T00:38:51.933Z,72.23
2022-12-28T00:41:18.491Z,72.95
2022-12-28T00:43:46.392Z,73.07
2022-12-28T00:46:13.248Z,74.09
2022-12-28T00:48:39.816Z,73.43
2022-12-28T00:51:08.542Z,73.74
2022-12-28T00:53:38.045Z,74.03
2022-12-28T00:56:07.393Z,74.59
2022-12-28T00:58:34.004Z,74.58
2022-12-28T01:01:01.931Z,74.85
2022-12-28T01:03:28.606Z,74.76
2022-12-28T01:05:55.259Z,75.26
2022-12-28T01:08:21.887Z,75.17
2022-12-28T01:10:48.673Z,75.24
2022-12-28T01:13:15.377Z,74.81
2022-12-28T01:15:41.989Z,75.79
2022-12-28T01:18:09.812Z,75.98
2022-12-28T01:20:40.277Z,76.73
2022-12-28T01:23:06.831Z,76.57
2022-12-28T01:25:33.482Z,76.49
2022-12-28T01:28:00.579Z,76.90
2022-12-28T01:30:27.266Z,77.20
2022-12-28T01:32:53.866Z,77.31
2022-12-28T01:35:21.890Z,77.30
2022-12-28T01:37:48.523Z,77.30
2022-12-28T01:40:15.733Z,77.85
2022-12-28T01:42:42.318Z,78.32
2022-12-28T01:45:20.648Z,78.12
2022-12-28T01:47:52.242Z,77.76
2022-12-28T01:50:23.283Z,78.46
2022-12-28T01:52:53.376Z,77.93
2022-12-28T01:55:24.902Z,77.45
2022-12-28T01:57:56.264Z,77.54
2022-12-28T02:00:24.256Z,77.77
2022-12-28T02:02:55.286Z,77.56
2022-12-28T02:05:29.816Z,78.17
2022-12-28T02:08:03.615Z,78.26
2022-12-28T02:10:41.064Z,78.76
2022-12-28T02:13:12.680Z,78.20
2022-12-28T02:15:39.211Z,77.84
2022-12-28T02:18:06.963Z,77.39
2022-12-28T02:20:43.302Z,77.57
2022-12-28T02:23:34.327Z,77.86
2022-12-28T02:26:43.267Z,77.21
2022-12-28T02:29:45.801Z,77.75
2022-12-28T02:32:27.010Z,76.90
2022-12-28T02:35:01.943Z,76.80
2022-12-28T02:37:35.183Z,76.66
2022-12-28T02:40:07.815Z,77.02
2022-12-28T02:42:36.455Z,76.57
2022-12-28T02:45:03.626Z,76.53
2022-12-28T02:47:31.821Z,76.36
2022-12-28T02:50:00.054Z,75.92
2022-12-28T02:52:42.706Z,76.26
2022-12-28T02:55:25.353Z,76.65
2022-12-28T02:58:07.053Z,76.81
2022-12-28T03:00:49.265Z,77.84
2022-12-28T03:03:26.183Z,76.94
2022-12-28T03:06:00.633Z,76.96
2022-12-28T03:08:37.644Z,77.25
2022-12-28T03:11:09.554Z,77.25
2022-12-28T03:13:42.831Z,77.46
2022-12-28T03:16:14.620Z,77.51
2022-12-28T03:18:44.590Z,77.24
2022-12-28T03:21:11.562Z,77.20
2022-12-28T03:23:42.705Z,77.46
2022-12-28T03:26:12.251Z,77.35
2022-12-28T03:28:42.393Z,77.32
2022-12-28T03:31:13.375Z,77.35
2022-12-28T03:33:44.745Z,77.24
2022-12-28T03:36:16.333Z,77.61
2022-12-28T03:38:49.937Z,77.27
2022-12-28T03:41:28.340Z,76.96
2022-12-28T03:44:00.504Z,76.81
2022-12-28T03:46:32.012Z,76.06
2022-12-28T03:49:01.709Z,76.04
2022-12-28T03:51:30.662Z,76.44
2022-12-28T03:53:57.320Z,76.19
2022-12-28T03:56:25.933Z,76.15
2022-12-28T03:58:53.131Z,75.95
2022-12-28T04:01:20.332Z,75.32
2022-12-28T04:03:47.674Z,75.26
2022-12-28T04:06:18.754Z,75.41
2022-12-28T04:08:46.579Z,75.43
2022-12-28T04:11:13.477Z,75.23
2022-12-28T04:13:40.088Z,75.02
2022-12-28T04:16:09.735Z,74.74
2022-12-28T04:18:38.880Z,74.69
2022-12-28T04:21:06.008Z,74.61
2022-12-28T04:23:34.073Z,74.44
2022-12-28T04:26:02.335Z,74.20
2022-12-28T04:28:28.981Z,74.84
2022-12-28T04:30:56.461Z,74.99
2022-12-28T04:33:23.382Z,74.64
2022-12-28T04:35:50.585Z,74.60
2022-12-28T04:38:17.462Z,74.75
2022-12-28T04:40:45.308Z,75.18
2022-12-28T04:43:12.026Z,75.41
2022-12-28T04:45:38.986Z,75.04
2022-12-28T04:48:05.915Z,75.13
2022-12-28T04:50:32.438Z,75.30
2022-12-28T04:53:01.399Z,76.25
2022-12-28T04:58:48.501Z,76.07
2022-12-28T05:01:17.597Z,76.19
2022-12-28T05:03:52.681Z,75.76
2022-12-28T05:06:23.454Z,75.92
2022-12-28T05:08:50.773Z,75.90
2022-12-28T05:11:19.379Z,76.19
2022-12-28T05:13:47.777Z,75.72
2022-12-28T05:16:16.218Z,76.03
2022-12-28T05:18:42.947Z,76.42
2022-12-28T05:21:16.253Z,77.01
2022-12-28T05:23:43.681Z,76.25
2022-12-28T05:26:12.665Z,76.42
2022-12-28T05:28:39.532Z,76.79
2022-12-28T05:31:10.797Z,76.38
2022-12-28T05:33:38.703Z,76.23
2022-12-28T05:36:07.863Z,76.66
2022-12-28T05:38:35.298Z,76.18
2022-12-28T05:41:05.921Z,76.22
2022-12-28T05:43:32.626Z,75.97
2022-12-28T05:46:01.729Z,76.02
2022-12-28T05:48:32.535Z,75.48
2022-12-28T05:51:01.079Z,75.40
2022-12-28T05:53:29.242Z,75.61
2022-12-28T05:56:01.029Z,75.67
2022-12-28T05:58:27.878Z,75.60
2022-12-28T06:00:54.383Z,75.80
2022-12-28T06:03:21.329Z,75.42
2022-12-28T06:05:49.283Z,74.95
2022-12-28T06:08:20.956Z,74.48
2022-12-28T06:10:49.132Z,74.14
2022-12-28T06:13:15.630Z,74.37
2022-12-28T06:15:42.123Z,74.79
2022-12-28T06:18:08.725Z,73.77
2022-12-28T06:20:35.631Z,74.12
2022-12-28T06:23:03.819Z,73.86
2022-12-28T06:25:30.527Z,73.72
2022-12-28T06:27:57.397Z,73.31
2022-12-28T06:30:24.322Z,73.69
2022-12-28T06:32:50.831Z,72.84
2022-12-28T06:35:17.513Z,73.11
2022-12-28T06:37:43.988Z,73.05
2022-12-28T06:40:12.510Z,73.27
2022-12-28T06:42:39.044Z,72.71
2022-12-28T06:45:07.093Z,72.72
2022-12-28T06:47:33.609Z,73.58
2022-12-28T06:50:00.100Z,73.61
2022-12-28T06:52:26.865Z,72.39
2022-12-28T06:54:53.400Z,73.81
2022-12-28T06:57:21.342Z,74.40
2022-12-28T06:59:47.883Z,74.30
2022-12-28T07:02:14.636Z,75.04
2022-12-28T07:04:44.145Z,74.38
2022-12-28T07:07:10.826Z,74.11
2022-12-28T07:09:40.344Z,74.31
2022-12-28T07:12:10.784Z,75.36
2022-12-28T07:14:38.634Z,75.67
2022-12-28T07:17:05.784Z,75.28
2022-12-28T07:19:33.019Z,76.21
2022-12-28T07:21:59.592Z,76.14
2022-12-28T07:24:26.389Z,75.44
2022-12-28T07:26:52.897Z,75.39
2022-12-28T07:29:20.783Z,74.83
2022-12-28T07:31:48.857Z,74.53
2022-12-28T07:34:15.960Z,74.50
2022-12-28T07:36:42.614Z,75.51
2022-12-28T07:39:12.448Z,74.58
2022-12-28T07:41:39.555Z,75.14
2022-12-28T07:44:06.770Z,74.27
2022-12-28T07:46:36.841Z,74.96
2022-12-28T07:49:07.644Z,74.55
2022-12-28T07:51:37.147Z,74.82
2022-12-28T07:54:04.926Z,74.31
2022-12-28T07:59:01.225Z,74.37
2022-12-28T08:01:30.540Z,74.96
2022-12-28T08:03:59.512Z,75.38
2022-12-28T08:06:31.027Z,74.49
2022-12-28T08:09:00.191Z,75.15
2022-12-28T08:11:29.261Z,74.63
2022-12-28T08:13:57.004Z,74.21
2022-12-28T08:16:26.363Z,73.80
2022-12-28T08:18:53.520Z,74.19
2022-12-28T08:21:22.841Z,74.49
2022-12-28T08:23:51.665Z,74.15
2022-12-28T08:26:19.908Z,73.96
2022-12-28T08:28:48.633Z,73.63
2022-12-28T08:31:18.768Z,73.19
2022-12-28T08:33:46.254Z,73.42
2022-12-28T08:36:13.223Z,73.14
2022-12-28T08:38:41.803Z,73.06
2022-12-28T08:41:13.355Z,72.97
2022-12-28T08:43:39.937Z,72.93
2022-12-28T08:46:08.891Z,73.09
2022-12-28T08:48:36.373Z,72.34
2022-12-28T08:51:05.089Z,72.52
2022-12-28T08:53:32.383Z,72.83
2022-12-28T08:56:06.616Z,72.53
2022-12-28T08:58:35.072Z,72.32
2022-12-28T09:01:06.631Z,72.62
2022-12-28T09:03:35.706Z,72.49
2022-12-28T09:06:05.037Z,71.45
2022-12-28T09:08:31.671Z,71.52
2022-12-28T09:11:00.508Z,71.71
2022-12-28T09:13:27.530Z,71.80
2022-12-28T09:15:59.705Z,71.64
2022-12-28T09:18:27.288Z,71.96
2022-12-28T09:24:22.270Z,71.07
2022-12-28T09:26:48.859Z,70.95
2022-12-28T09:29:15.525Z,71.49
2022-12-28T09:31:45.937Z,71.08
2022-12-28T09:37:19.590Z,70.34
2022-12-28T09:39:46.442Z,69.71
2022-12-28T09:42:18.589Z,69.85
2022-12-28T09:44:59.345Z,70.26
2022-12-28T09:47:33.758Z,70.29
2022-12-28T09:50:26.771Z,69.89
2022-12-28T09:53:02.455Z,70.33
2022-12-28T09:55:32.560Z,69.61
2022-12-28T09:58:01.858Z,69.21
2022-12-28T10:00:37.608Z,69.58
2022-12-28T10:03:11.382Z,68.98
2022-12-28T10:05:38.218Z,68.70
2022-12-28T10:08:05.344Z,68.17
2022-12-28T10:10:34.161Z,67.55
2022-12-28T10:16:29.788Z,68.02
2022-12-28T10:19:35.062Z,68.45
2022-12-28T10:22:05.855Z,68.19
2022-12-28T10:24:42.781Z,68.15
2022-12-28T10:27:31.682Z,68.00
2022-12-28T10:30:20.295Z,68.04
2022-12-28T10:32:55.495Z,68.40
2022-12-28T10:35:39.495Z,68.11
2022-12-28T10:38:22.695Z,68.31
2022-12-28T10:41:10.041Z,68.05
2022-12-28T10:44:08.648Z,67.81
2022-12-28T10:47:17.534Z,68.03
2022-12-28T10:50:37.898Z,67.49
2022-12-28T10:53:05.858Z,67.14
2022-12-28T10:55:51.668Z,66.94
2022-12-28T10:58:33.846Z,66.76
2022-12-28T11:04:07.276Z,66.88
2022-12-28T11:07:00.989Z,66.77
2022-12-28T11:09:37.429Z,66.97
2022-12-28T11:13:18.353Z,66.79
2022-12-28T11:15:29.028Z,66.31
2022-12-28T11:18:23.742Z,66.67
2022-12-28T11:21:04.706Z,66.22
2022-12-28T11:23:58.323Z,65.94
2022-12-28T11:26:32.962Z,66.18
2022-12-28T11:29:05.311Z,66.86
2022-12-28T11:31:46.332Z,66.86
2022-12-28T11:45:45.092Z,67.88
2022-12-28T11:49:14.122Z,68.28
2022-12-28T11:52:42.254Z,68.43
2022-12-28T12:02:44.094Z,66.90
2022-12-28T12:09:39.030Z,66.77
2022-12-28T12:15:57.269Z,65.86
2022-12-28T12:18:58.374Z,66.12
2022-12-28T12:21:47.685Z,66.32
2022-12-28T12:24:26.806Z,66.38
2022-12-28T12:27:24.953Z,66.69
2022-12-28T12:30:19.508Z,65.65
2022-12-28T12:32:54.913Z,66.21
2022-12-28T12:35:36.675Z,65.88
2022-12-28T12:38:24.388Z,66.20
2022-12-28T12:41:14.718Z,65.32
2022-12-28T12:44:03.543Z,65.04
2022-12-28T12:47:12.372Z,65.30
2022-12-28T12:52:58.504Z,64.88
2022-12-28T12:56:00.981Z,64.16
2022-12-28T12:58:48.844Z,64.53
2022-12-28T13:01:38.340Z,65.37
2022-12-28T13:07:40.378Z,66.02
2022-12-28T13:10:27.132Z,65.71
2022-12-28T13:13:23.601Z,65.44
2022-12-28T13:16:17.684Z,64.99
2022-12-28T13:49:08.847Z,63.94
2022-12-28T13:51:38.383Z,64.17
2022-12-28T13:54:07.395Z,64.02
2022-12-28T13:56:37.551Z,63.37
2022-12-28T13:59:10.176Z,63.89
2022-12-28T14:01:40.734Z,63.54
2022-12-28T14:08:01.443Z,63.25
2022-12-28T14:10:29.387Z,62.88
2022-12-28T14:16:42.530Z,63.04
2022-12-28T14:19:10.402Z,63.17
2022-12-28T14:21:39.777Z,64.22
2022-12-28T14:41:32.847Z,64.52
2022-12-28T14:44:07.375Z,64.40
2022-12-28T14:47:04.942Z,64.55
2022-12-28T14:50:18.298Z,64.46
2022-12-28T14:59:39.275Z,64.24
2022-12-28T15:02:27.331Z,64.60
2022-12-28T15:04:58.912Z,64.29
2022-12-28T15:07:27.415Z,64.41
2022-12-28T15:10:23.442Z,64.40
2022-12-28T15:12:53.336Z,64.23
2022-12-28T15:23:19.589Z,63.70
2022-12-28T15:55:11.402Z,63.21
2022-12-28T15:58:10.983Z,63.46
2022-12-28T16:01:29.753Z,63.84
2022-12-28T16:04:01.318Z,63.37
2022-12-28T16:06:41.808Z,63.16
2022-12-28T16:09:11.419Z,63.47
2022-12-28T16:11:39.256Z,63.55
2022-12-28T16:17:57.441Z,63.39
2022-12-28T16:20:24.793Z,63.30
2022-12-28T16:22:54.175Z,63.49
2022-12-28T16:25:21.288Z,62.85
2022-12-28T16:29:44.713Z,63.26
2022-12-28T16:30:58.598Z,62.76
2022-12-28T16:33:53.803Z,63.05
2022-12-28T16:39:18.111Z,62.80
2022-12-28T16:41:47.011Z,63.03
2022-12-28T17:14:37.366Z,66.15
2022-12-28T17:17:45.699Z,67.34
2022-12-28T17:24:06.839Z,68.56
2022-12-28T17:26:35.593Z,68.46
2022-12-28T17:29:15.153Z,68.65
2022-12-28T17:31:44.643Z,69.57
2022-12-28T17:34:14.222Z,69.55
2022-12-28T17:36:49.394Z,69.96
2022-12-28T17:39:39.370Z,70.64
2022-12-28T17:42:13.540Z,71.38
2022-12-28T17:44:47.054Z,71.25
2022-12-28T17:47:21.268Z,72.38
2022-12-28T17:49:54.279Z,72.66
2022-12-28T17:52:23.916Z,72.79
2022-12-28T17:54:51.508Z,73.32
2022-12-28T17:57:20.179Z,73.48
2022-12-28T17:59:47.924Z,73.20
2022-12-28T18:05:53.038Z,73.48
2022-12-28T18:09:09.413Z,73.48
2022-12-28T18:12:30.963Z,74.16
2022-12-28T18:18:38.030Z,74.60
2022-12-28T18:48:29.851Z,77.83
2022-12-28T18:51:57.222Z,78.01
2022-12-28T19:02:31.639Z,79.46
2022-12-28T19:09:08.822Z,79.25
2022-12-28T19:22:45.731Z,80.67
2022-12-28T19:54:07.619Z,82.22
2022-12-28T20:24:03.327Z,82.11
2022-12-28T20:37:59.006Z,82.03
2022-12-28T20:47:44.695Z,81.00
2022-12-28T21:11:14.355Z,80.24
2022-12-28T21:52:23.551Z,81.54
2022-12-28T21:55:41.169Z,81.92
2022-12-28T22:00:42.256Z,81.21
2022-12-28T22:27:11.352Z,81.70
